createdAt,value
2023-01-10T00:10:00.081Z,5.06
2023-01-10T00:25:06.511Z,5.06
2023-01-10T00:40:13.492Z,4.69
2023-01-10T00:55:19.942Z,4.38
2023-01-10T01:10:28.531Z,4.38
2023-01-10T01:25:34.751Z,4.50
2023-01-10T01:40:41.866Z,4.88
2023-01-10T01:55:48.795Z,4.94
2023-01-10T02:10:59.472Z,4.69
2023-01-10T09:19:24.459Z,4.88
2023-01-10T09:34:30.592Z,5.19
2023-01-10T09:49:49.042Z,5.19
2023-01-10T10:05:06.346Z,5.44
2023-01-10T10:20:36.954Z,5.56
2023-01-10T10:35:46.767Z,5.56
2023-01-10T10:51:00.043Z,5.81
2023-01-10T11:06:07.475Z,5.50
2023-01-10T11:21:15.711Z,5.44
2023-01-10T11:36:21.355Z,5.81
2023-01-10T11:51:30.158Z,5.88
2023-01-10T12:06:36.478Z,5.75
2023-01-10T12:21:43.451Z,5.75
2023-01-10T12:36:59.992Z,5.81
2023-01-10T12:52:11.422Z,5.75
2023-01-10T13:07:19.291Z,6.00
2023-01-10T13:22:25.641Z,5.94
2023-01-10T13:37:37.247Z,6.13
2023-01-10T13:52:43.136Z,6.38
2023-01-10T14:07:52.349Z,6.44
2023-01-10T14:23:06.736Z,6.56
2023-01-10T14:38:21.974Z,6.56
2023-01-10T14:53:32.288Z,6.31
2023-01-10T15:08:38.219Z,6.06
2023-01-10T15:23:46.487Z,5.44
2023-01-10T15:38:52.675Z,5.56
2023-01-10T15:54:04.723Z,5.63
2023-01-10T16:09:21.510Z,5.69
2023-01-10T16:24:29.682Z,5.31
2023-01-10T16:39:35.817Z,5.56
2023-01-10T16:54:41.558Z,5.69
2023-01-10T17:09:47.427Z,5.75
2023-01-10T17:24:53.468Z,5.81
2023-01-10T17:39:59.495Z,5.81
2023-01-10T17:55:06.969Z,5.75
2023-01-10T18:10:13.482Z,5.81
2023-01-10T18:25:19.783Z,5.75
2023-01-10T18:40:25.692Z,5.81
2023-01-10T18:55:31.566Z,5.81
2023-01-10T19:11:00.370Z,5.75
2023-01-10T19:26:03.352Z,5.75
2023-01-10T19:41:09.407Z,5.81
2023-01-10T19:56:19.958Z,5.81
2023-01-10T20:11:27.516Z,5.75
2023-01-10T20:26:33.474Z,5.81
2023-01-10T20:41:38.968Z,5.81
2023-01-10T20:56:44.858Z,5.81
2023-01-10T21:12:02.132Z,5.88
2023-01-10T21:27:13.604Z,5.81
2023-01-10T21:42:38.500Z,5.69
2023-01-10T21:57:44.270Z,5.81
2023-01-10T22:12:50.196Z,5.75
2023-01-10T22:27:55.834Z,5.81
2023-01-10T22:43:02.200Z,5.88
2023-01-10T22:58:08.006Z,5.88
2023-01-10T23:13:15.749Z,5.88
2023-01-10T23:28:21.513Z,5.94
2023-01-10T23:43:27.595Z,5.94
2023-01-10T23:58:33.126Z,5.94
